Terminal Aerodrome Forecast
Issued by NWS

Current Version | Previous Version | Graphics & Text | Print | Product List | Glossary On
Versions: 1 2 3 4 5 6 7 8 9 10 11 12 13 14 15 16 17 18 19 20 21 22
000
FTUS41 KRLX 221700
TAFCKB
TAF
KCKB 221732Z 2218/2318 33010G16KT P6SM OVC015
      TEMPO 2218/2219 4SM -RA BR BKN008
     FM222100 33009KT P6SM OVC020
     FM230000 32007KT P6SM OVC025=

USA.gov is the U.S. government's official web portal to all federal, state and local government web resources and services.